Time;durP1;ratioP1;P1;durP2;ratioP2;P2;SDS_P1;SDS_P2;PMS_P1;PMS_P2;Temp;Humidity;BMP_temperature;BMP_pressure;BME280_temperature;BME280_humidity;BME280_pressure;Samples;Min_cycle;Max_cycle;Signal;HPM_P1;HPM_P2
2023/08/17 00:01:03;;;;;;;5.20;1.50;;;;;;;19.59;80.41;101256.70;108620;1252;61258;-51
2023/08/17 00:03:30;;;;;;;4.30;1.50;;;;;;;19.60;80.59;101248.98;108011;1250;60045;-60
2023/08/17 00:05:56;;;;;;;4.90;1.60;;;;;;;19.59;80.69;101240.98;107809;1252;61435;-57
2023/08/17 00:08:23;;;;;;;6.70;1.80;;;;;;;19.59;80.72;101234.30;108179;1253;59718;-60
2023/08/17 00:10:49;;;;;;;4.50;1.70;;;;;;;19.58;80.81;101229.39;108380;1252;59343;-59
2023/08/17 00:13:16;;;;;;;4.50;1.60;;;;;;;19.58;81.03;101223.56;107922;1252;61146;-57
2023/08/17 00:15:45;;;;;;;6.70;1.70;;;;;;;19.58;81.14;101231.59;107880;1252;61368;-59
2023/08/17 00:18:12;;;;;;;6.60;1.80;;;;;;;19.57;81.28;101235.07;108562;1252;59523;-58
2023/08/17 00:20:38;;;;;;;5.80;2.00;;;;;;;19.59;81.38;101237.13;108735;1250;74716;-60
2023/08/17 00:23:05;;;;;;;5.70;1.70;;;;;;;19.62;81.57;101238.60;108027;1252;59254;-57
2023/08/17 00:25:31;;;;;;;4.90;1.60;;;;;;;19.62;81.64;101238.06;108003;1252;61375;-57
2023/08/17 00:27:58;;;;;;;6.30;1.90;;;;;;;19.62;81.92;101236.23;108291;1252;61491;-60
2023/08/17 00:30:24;;;;;;;7.50;2.50;;;;;;;19.61;82.10;101233.47;107580;1252;61407;-55
2023/08/17 00:32:50;;;;;;;5.90;1.90;;;;;;;19.63;82.29;101228.61;107978;1252;60657;-59
2023/08/17 00:35:17;;;;;;;6.00;2.00;;;;;;;19.63;82.48;101228.07;108256;1251;61337;-56
2023/08/17 00:37:44;;;;;;;5.20;1.70;;;;;;;19.62;82.77;101222.45;108194;1253;59208;-53
2023/08/17 00:40:10;;;;;;;5.80;1.80;;;;;;;19.60;83.01;101224.23;108392;1252;61248;-58
2023/08/17 00:42:37;;;;;;;5.20;2.10;;;;;;;19.60;83.47;101222.39;107828;1253;61911;-60
2023/08/17 00:45:04;;;;;;;5.50;1.70;;;;;;;19.61;84.01;101224.89;107934;1250;59632;-58
2023/08/17 00:47:31;;;;;;;6.30;2.00;;;;;;;19.60;84.30;101222.30;108210;1252;70971;-54
2023/08/17 00:49:58;;;;;;;4.60;2.00;;;;;;;19.57;84.68;101221.28;107876;1251;72488;-52
2023/08/17 00:52:25;;;;;;;7.20;2.20;;;;;;;19.56;85.05;101217.48;107848;1252;61176;-51
2023/08/17 00:54:52;;;;;;;6.30;2.60;;;;;;;19.54;85.47;101217.48;108287;1252;59151;-54
2023/08/17 00:57:19;;;;;;;6.20;2.10;;;;;;;19.50;85.82;101221.13;107905;1253;73783;-56
2023/08/17 00:59:46;;;;;;;6.40;2.20;;;;;;;19.49;86.27;101226.88;108695;1252;71640;-55
2023/08/17 01:02:30;;;;;;;5.90;2.20;;;;;;;19.48;86.73;101229.73;107728;1253;72730;-59
2023/08/17 01:04:58;;;;;;;5.50;2.20;;;;;;;19.45;87.11;101226.58;107960;1252;61250;-57
2023/08/17 01:07:24;;;;;;;5.60;2.20;;;;;;;19.44;87.40;101223.27;107924;1253;60952;-61
2023/08/17 01:09:52;;;;;;;4.70;2.10;;;;;;;19.44;87.62;101222.44;108364;1252;73145;-53
2023/08/17 01:12:26;;;;;;;6.50;2.10;;;;;;;19.42;87.91;101222.42;108203;1252;71656;-51
2023/08/17 01:15:02;;;;;;;5.60;2.30;;;;;;;19.40;88.23;101233.08;107775;1252;72755;-52
2023/08/17 01:17:39;;;;;;;6.50;2.50;;;;;;;19.39;88.44;101236.23;107710;1252;61973;-55
2023/08/17 01:20:09;;;;;;;5.60;2.30;;;;;;;19.37;88.84;101237.66;108683;1254;60083;-53
2023/08/17 01:22:38;;;;;;;5.90;2.40;;;;;;;19.37;89.31;101240.56;107773;1252;75663;-54
2023/08/17 01:25:05;;;;;;;8.40;2.70;;;;;;;19.35;89.45;101247.60;108318;1252;70074;-52
2023/08/17 01:27:39;;;;;;;7.00;2.60;;;;;;;19.34;89.74;101253.00;109208;1252;72830;-52
2023/08/17 01:30:07;;;;;;;7.70;3.10;;;;;;;19.30;89.99;101255.52;108758;1252;60829;-56
2023/08/17 01:32:42;;;;;;;6.20;2.70;;;;;;;19.28;90.33;101261.52;107436;1253;61127;-59
2023/08/17 01:35:20;;;;;;;6.70;2.50;;;;;;;19.27;90.63;101258.64;107838;1256;73758;-53
2023/08/17 01:37:50;;;;;;;6.70;2.60;;;;;;;19.25;90.93;101257.13;108006;1252;70970;-59
2023/08/17 01:40:18;;;;;;;4.50;2.50;;;;;;;19.24;90.91;101257.58;107642;1252;71757;-52
2023/08/17 01:42:46;;;;;;;8.40;3.30;;;;;;;19.23;91.40;101254.90;107449;1252;61311;-56
2023/08/17 01:45:12;;;;;;;7.50;3.10;;;;;;;19.22;91.88;101251.27;107039;1252;61093;-58
2023/08/17 01:47:39;;;;;;;6.60;2.80;;;;;;;19.22;92.29;101250.19;107951;1252;73554;-58
2023/08/17 01:50:06;;;;;;;6.70;3.10;;;;;;;19.18;92.67;101241.77;107189;1252;61177;-54
2023/08/17 01:52:32;;;;;;;7.10;3.60;;;;;;;19.14;92.99;101237.13;106959;1253;72544;-57
2023/08/17 01:54:59;;;;;;;6.90;3.20;;;;;;;19.11;93.32;101234.84;107752;1252;61251;-55
2023/08/17 01:57:25;;;;;;;6.20;3.00;;;;;;;19.05;93.71;101228.92;107293;1252;61310;-57
2023/08/17 01:59:52;;;;;;;8.50;3.80;;;;;;;18.95;94.52;101226.02;107679;1252;73214;-51
2023/08/17 02:02:18;;;;;;;6.10;2.90;;;;;;;18.88;94.89;101225.02;106878;1253;61545;-52
2023/08/17 02:04:45;;;;;;;7.00;3.70;;;;;;;18.82;95.78;101218.95;108101;1252;61187;-53
2023/08/17 02:07:11;;;;;;;7.60;3.40;;;;;;;18.75;96.14;101223.55;106942;1255;61338;-57
2023/08/17 02:09:38;;;;;;;7.30;3.40;;;;;;;18.69;96.58;101221.36;107565;1252;60446;-55
2023/08/17 02:12:05;;;;;;;5.70;3.30;;;;;;;18.65;97.00;101222.29;107752;1252;61340;-53
2023/08/17 02:14:31;;;;;;;7.50;3.90;;;;;;;18.62;97.73;101218.08;107037;1252;71149;-59
2023/08/17 02:16:58;;;;;;;7.00;4.10;;;;;;;18.58;98.15;101214.98;107562;1252;61282;-56
2023/08/17 02:19:24;;;;;;;7.10;4.20;;;;;;;18.53;98.69;101212.30;107584;1252;61351;-52
2023/08/17 02:21:51;;;;;;;7.30;3.50;;;;;;;18.51;99.21;101214.60;108055;1252;61225;-57
2023/08/17 02:24:18;;;;;;;8.30;3.70;;;;;;;18.50;99.57;101208.36;107024;1252;61232;-54
2023/08/17 02:26:44;;;;;;;7.70;3.70;;;;;;;18.46;99.93;101204.09;107087;1253;61755;-55
2023/08/17 02:29:10;;;;;;;7.30;3.50;;;;;;;18.43;100.00;101197.14;107247;1255;61219;-53
2023/08/17 02:31:37;;;;;;;9.70;4.00;;;;;;;18.40;100.00;101194.02;107517;1252;61334;-53
2023/08/17 02:34:05;;;;;;;6.80;3.60;;;;;;;18.36;100.00;101192.89;107559;1253;61755;-52
2023/08/17 02:36:32;;;;;;;6.20;3.40;;;;;;;18.34;100.00;101188.14;107610;1252;73467;-53
2023/08/17 02:39:01;;;;;;;7.50;3.50;;;;;;;18.30;100.00;101183.08;107274;1252;70184;-52
2023/08/17 02:41:27;;;;;;;7.20;3.90;;;;;;;18.28;100.00;101177.30;107715;1252;71442;-54
2023/08/17 02:43:54;;;;;;;6.80;3.80;;;;;;;18.26;100.00;101176.23;107122;1255;61151;-57
2023/08/17 02:46:20;;;;;;;5.90;3.80;;;;;;;18.23;100.00;101179.48;106883;1252;61202;-53
2023/08/17 02:48:47;;;;;;;9.30;4.30;;;;;;;18.21;100.00;101179.00;107845;1252;61232;-56
2023/08/17 02:51:14;;;;;;;6.70;3.90;;;;;;;18.23;100.00;101178.65;107009;1252;69630;-54
2023/08/17 02:53:40;;;;;;;6.40;3.70;;;;;;;18.22;100.00;101171.38;106876;1253;61277;-55
2023/08/17 02:56:10;;;;;;;8.50;3.90;;;;;;;18.20;100.00;101166.66;108110;1252;61133;-51
2023/08/17 02:58:40;;;;;;;7.60;3.90;;;;;;;18.19;100.00;101161.83;107903;1252;60229;-53
2023/08/17 03:01:07;;;;;;;6.20;4.20;;;;;;;18.17;100.00;101157.09;107294;1252;74549;-54
2023/08/17 03:03:34;;;;;;;7.00;3.70;;;;;;;18.15;100.00;101156.30;106884;1255;71240;-55
2023/08/17 03:06:02;;;;;;;7.50;3.90;;;;;;;18.12;100.00;101155.61;107951;1252;71783;-56
2023/08/17 03:08:29;;;;;;;6.50;4.10;;;;;;;18.10;100.00;101151.73;107347;1253;61290;-52
2023/08/17 03:10:55;;;;;;;8.50;4.00;;;;;;;18.08;100.00;101153.70;107561;1253;61259;-52
2023/08/17 03:13:22;;;;;;;4.90;3.70;;;;;;;18.06;100.00;101153.95;107637;1252;61660;-54
2023/08/17 03:15:48;;;;;;;6.10;3.70;;;;;;;18.04;100.00;101152.23;108771;1252;61231;-54
2023/08/17 03:18:15;;;;;;;6.00;3.60;;;;;;;18.03;100.00;101150.25;107635;1252;61357;-52
2023/08/17 03:20:41;;;;;;;5.70;3.50;;;;;;;18.00;100.00;101144.77;106994;1252;61193;-53
2023/08/17 03:23:08;;;;;;;5.80;3.70;;;;;;;17.98;100.00;101138.98;107312;1253;60387;-55
2023/08/17 03:25:35;;;;;;;5.60;3.20;;;;;;;17.97;100.00;101133.20;107506;1253;74643;-55
2023/08/17 03:28:01;;;;;;;5.60;3.50;;;;;;;17.94;100.00;101134.79;107705;1252;61251;-58
2023/08/17 03:30:28;;;;;;;6.20;3.60;;;;;;;17.93;100.00;101129.60;107409;1252;61199;-54
2023/08/17 03:32:54;;;;;;;4.80;3.50;;;;;;;17.93;100.00;101131.41;108022;1253;59744;-53
2023/08/17 03:35:21;;;;;;;7.20;4.10;;;;;;;17.91;100.00;101131.05;107821;1252;61180;-56
2023/08/17 03:37:47;;;;;;;5.70;3.80;;;;;;;17.90;100.00;101129.20;107355;1252;61273;-54
2023/08/17 03:40:13;;;;;;;6.50;4.30;;;;;;;17.92;100.00;101133.23;107756;1252;61328;-53
2023/08/17 03:42:41;;;;;;;5.90;3.70;;;;;;;17.94;100.00;101134.66;107379;1252;61136;-54
2023/08/17 03:45:08;;;;;;;5.30;3.80;;;;;;;17.94;100.00;101134.88;107486;1252;62049;-52
2023/08/17 03:47:34;;;;;;;6.20;4.00;;;;;;;17.95;100.00;101137.11;107069;1252;61077;-55
2023/08/17 03:50:01;;;;;;;5.30;4.00;;;;;;;17.96;100.00;101136.84;107466;1253;61220;-58
2023/08/17 03:52:27;;;;;;;5.70;4.00;;;;;;;17.99;100.00;101135.59;107810;1252;61223;-57
2023/08/17 03:54:54;;;;;;;5.10;4.00;;;;;;;18.00;100.00;101138.86;107674;1252;62428;-54
2023/08/17 03:57:20;;;;;;;4.80;3.70;;;;;;;18.04;100.00;101142.19;107682;1253;61223;-55
2023/08/17 03:59:47;;;;;;;5.40;3.90;;;;;;;18.06;100.00;101145.86;107694;1253;61144;-57
2023/08/17 04:02:13;;;;;;;6.70;4.60;;;;;;;18.09;100.00;101143.60;107532;1255;60232;-53
2023/08/17 04:04:40;;;;;;;5.50;4.10;;;;;;;18.10;100.00;101142.77;107176;1255;61332;-56
2023/08/17 04:07:06;;;;;;;5.10;3.70;;;;;;;18.11;100.00;101144.23;107339;1252;61211;-49
2023/08/17 04:09:33;;;;;;;4.60;3.80;;;;;;;18.13;100.00;101144.20;107428;1253;61327;-54
2023/08/17 04:12:00;;;;;;;4.70;3.60;;;;;;;18.15;100.00;101147.09;108037;1253;61297;-55
2023/08/17 04:14:26;;;;;;;6.40;3.90;;;;;;;18.17;100.00;101141.46;107519;1255;59707;-57
2023/08/17 04:16:53;;;;;;;4.90;3.50;;;;;;;18.19;100.00;101143.36;107287;1253;61255;-55
2023/08/17 04:19:20;;;;;;;5.40;3.60;;;;;;;18.20;100.00;101145.66;107936;1253;72713;-59
2023/08/17 04:21:46;;;;;;;4.40;3.70;;;;;;;18.20;100.00;101143.30;107251;1252;61596;-55
2023/08/17 04:24:12;;;;;;;4.80;3.50;;;;;;;18.23;100.00;101143.55;107594;1256;61722;-55
2023/08/17 04:26:39;;;;;;;4.60;3.60;;;;;;;18.25;100.00;101140.83;107947;1253;61276;-55
2023/08/17 04:29:05;;;;;;;4.90;3.50;;;;;;;18.26;100.00;101148.23;107560;1255;61116;-49
2023/08/17 04:31:32;;;;;;;4.70;3.70;;;;;;;18.28;100.00;101143.05;107668;1252;59775;-53
2023/08/17 04:33:59;;;;;;;4.40;3.50;;;;;;;18.31;100.00;101144.82;107989;1252;61849;-50
2023/08/17 04:36:25;;;;;;;5.70;3.80;;;;;;;18.37;100.00;101140.69;107389;1253;61279;-52
2023/08/17 04:38:52;;;;;;;5.20;3.90;;;;;;;18.40;100.00;101140.55;108040;1253;59814;-47
2023/08/17 04:41:18;;;;;;;5.70;3.80;;;;;;;18.43;100.00;101140.74;107602;1255;61267;-50
2023/08/17 04:43:46;;;;;;;5.30;3.80;;;;;;;18.46;100.00;101139.40;107408;1253;61295;-49
2023/08/17 04:46:13;;;;;;;7.00;4.10;;;;;;;18.49;100.00;101142.73;107664;1253;62076;-52
2023/08/17 04:48:39;;;;;;;5.60;3.90;;;;;;;18.52;100.00;101141.11;108018;1255;61822;-51
2023/08/17 04:51:06;;;;;;;5.60;4.00;;;;;;;18.54;100.00;101144.89;108021;1253;61314;-49
2023/08/17 04:53:32;;;;;;;6.30;4.20;;;;;;;18.57;100.00;101147.35;107845;1252;61131;-50
2023/08/17 04:55:59;;;;;;;4.90;4.10;;;;;;;18.59;100.00;101148.11;107540;1252;61224;-49
2023/08/17 04:58:25;;;;;;;5.80;3.90;;;;;;;18.62;100.00;101150.95;108473;1253;61880;-50
2023/08/17 05:00:52;;;;;;;5.40;4.00;;;;;;;18.64;100.00;101153.70;108850;1252;59382;-52
2023/08/17 05:03:19;;;;;;;6.10;4.10;;;;;;;18.66;100.00;101150.89;107568;1253;75116;-49
2023/08/17 05:05:58;;;;;;;4.90;3.90;;;;;;;18.68;100.00;101152.03;108341;1253;71259;-50
2023/08/17 05:08:25;;;;;;;6.10;4.30;;;;;;;18.71;100.00;101151.09;107190;1252;60649;-49
2023/08/17 05:10:51;;;;;;;6.00;4.10;;;;;;;18.76;100.00;101147.92;107716;1252;61219;-51
2023/08/17 05:13:19;;;;;;;5.00;4.10;;;;;;;18.81;100.00;101146.14;107830;1252;61295;-52
2023/08/17 05:15:45;;;;;;;5.60;3.90;;;;;;;18.85;100.00;101151.27;107585;1253;72579;-55
2023/08/17 05:18:12;;;;;;;5.60;3.90;;;;;;;18.89;100.00;101151.33;107427;1253;72108;-55
2023/08/17 05:20:38;;;;;;;4.40;3.80;;;;;;;18.92;100.00;101152.05;107344;1253;61150;-52
2023/08/17 05:23:05;;;;;;;6.30;4.10;;;;;;;18.96;100.00;101154.75;107249;1253;61231;-49
2023/08/17 05:25:31;;;;;;;7.00;3.90;;;;;;;18.99;100.00;101157.37;108153;1251;61158;-51
2023/08/17 05:27:58;;;;;;;4.40;3.80;;;;;;;19.01;100.00;101160.63;107885;1252;61383;-51
2023/08/17 05:30:24;;;;;;;8.00;5.50;;;;;;;19.04;100.00;101160.02;107390;1253;61138;-50
2023/08/17 05:32:51;;;;;;;6.10;4.80;;;;;;;19.09;100.00;101158.80;107460;1253;61251;-48
2023/08/17 05:35:17;;;;;;;10.50;7.60;;;;;;;19.15;100.00;101160.62;108159;1253;61274;-51
2023/08/17 05:37:44;;;;;;;6.10;4.80;;;;;;;19.20;100.00;101161.16;107440;1255;61253;-48
2023/08/17 05:40:11;;;;;;;6.70;4.30;;;;;;;19.24;100.00;101163.82;107087;1256;61333;-54
2023/08/17 05:42:37;;;;;;;5.80;3.90;;;;;;;19.27;100.00;101163.86;107969;1252;70052;-53
2023/08/17 05:45:04;;;;;;;5.70;3.90;;;;;;;19.33;100.00;101169.21;108084;1253;71428;-54
2023/08/17 05:47:31;;;;;;;6.30;4.20;;;;;;;19.37;100.00;101173.09;107649;1253;62051;-52
2023/08/17 05:49:57;;;;;;;8.10;4.40;;;;;;;19.41;100.00;101176.92;107137;1255;61853;-52
2023/08/17 05:52:24;;;;;;;9.30;4.00;;;;;;;19.55;100.00;101175.73;107951;1252;61149;-54
2023/08/17 05:54:50;;;;;;;5.00;3.40;;;;;;;19.84;100.00;101175.52;107511;1253;61604;-56
2023/08/17 05:57:16;;;;;;;4.90;3.30;;;;;;;20.09;100.00;101173.61;107608;1252;62326;-51
2023/08/17 05:59:43;;;;;;;6.50;3.60;;;;;;;20.28;100.00;101171.79;107155;1253;61125;-51
2023/08/17 06:02:10;;;;;;;4.30;3.00;;;;;;;20.48;100.00;101173.84;108348;1253;61262;-55
2023/08/17 06:04:36;;;;;;;6.10;2.80;;;;;;;20.73;100.00;101175.84;108342;1253;74517;-52
2023/08/17 06:07:03;;;;;;;4.20;2.70;;;;;;;20.90;100.00;101172.66;108357;1255;59225;-55
2023/08/17 06:09:30;;;;;;;3.80;2.50;;;;;;;21.07;100.00;101175.92;107266;1254;70946;-53
2023/08/17 06:11:56;;;;;;;6.50;3.30;;;;;;;21.17;99.76;101177.30;107942;1253;61207;-49
2023/08/17 06:14:23;;;;;;;3.80;2.70;;;;;;;21.27;99.55;101177.65;107822;1254;59892;-53
2023/08/17 06:16:49;;;;;;;4.80;3.00;;;;;;;21.33;98.10;101178.10;107435;1253;61200;-49
2023/08/17 06:19:16;;;;;;;4.40;2.40;;;;;;;21.32;97.91;101177.27;108056;1255;61341;-52
2023/08/17 06:21:42;;;;;;;4.70;2.50;;;;;;;21.27;97.01;101178.73;107614;1253;61229;-51
2023/08/17 06:24:09;;;;;;;5.10;2.40;;;;;;;21.23;96.65;101181.58;107424;1254;62820;-55
2023/08/17 06:26:35;;;;;;;9.20;6.50;;;;;;;21.17;96.42;101176.77;107658;1252;61391;-52
2023/08/17 06:29:01;;;;;;;5.50;3.50;;;;;;;21.21;96.87;101180.98;107418;1255;61292;-55
2023/08/17 06:31:30;;;;;;;3.30;2.10;;;;;;;21.24;96.33;101180.81;108205;1253;70883;-51
2023/08/17 06:33:57;;;;;;;7.90;5.20;;;;;;;21.20;95.12;101181.42;107338;1252;72743;-56
2023/08/17 06:36:23;;;;;;;3.80;2.30;;;;;;;21.16;95.05;101187.71;107799;1253;62040;-54
2023/08/17 06:38:50;;;;;;;3.10;2.40;;;;;;;21.10;94.77;101187.66;107908;1252;61019;-54
2023/08/17 06:41:17;;;;;;;4.40;2.90;;;;;;;21.02;94.82;101186.45;107763;1254;61186;-52
2023/08/17 06:43:43;;;;;;;5.00;2.60;;;;;;;20.97;95.04;101181.02;107179;1253;71197;-48
2023/08/17 06:46:10;;;;;;;3.40;3.10;;;;;;;20.95;95.71;101177.69;107163;1253;61324;-50
2023/08/17 06:48:36;;;;;;;4.90;3.40;;;;;;;20.98;95.44;101179.50;108052;1253;61134;-53
2023/08/17 06:51:04;;;;;;;4.40;2.40;;;;;;;20.94;95.18;101183.70;107358;1253;61260;-50
2023/08/17 06:53:31;;;;;;;3.80;2.40;;;;;;;20.93;95.67;101184.48;108208;1253;74620;-51
2023/08/17 06:55:57;;;;;;;4.90;2.60;;;;;;;20.92;95.37;101185.03;107454;1253;61234;-48
2023/08/17 06:58:28;;;;;;;5.50;3.30;;;;;;;20.93;95.41;101186.11;107615;1255;72709;-50
2023/08/17 07:00:54;;;;;;;4.90;2.60;;;;;;;20.91;95.04;101184.71;107944;1252;300600;-50
2023/08/17 07:03:21;;;;;;;4.30;2.20;;;;;;;20.93;95.60;101180.17;108433;1252;61500;-57
2023/08/17 07:05:48;;;;;;;6.00;3.90;;;;;;;21.00;95.23;101182.93;107818;1253;74352;-52
2023/08/17 07:08:14;;;;;;;5.30;3.80;;;;;;;21.00;95.37;101185.53;107554;1253;70651;-50
2023/08/17 07:10:41;;;;;;;3.40;2.30;;;;;;;21.02;94.87;101190.82;107282;1255;61321;-53
2023/08/17 07:13:07;;;;;;;4.30;2.40;;;;;;;21.01;94.76;101192.19;108102;1252;61356;-54
2023/08/17 07:15:34;;;;;;;3.10;2.30;;;;;;;21.10;95.43;101194.63;107304;1253;61350;-55
2023/08/17 07:18:00;;;;;;;11.90;7.00;;;;;;;21.15;94.63;101196.24;107320;1252;61203;-50
2023/08/17 07:20:27;;;;;;;3.40;2.40;;;;;;;21.24;94.71;101193.55;107979;1252;61266;-55
2023/08/17 07:22:53;;;;;;;4.00;2.30;;;;;;;21.26;93.76;101198.23;108381;1252;72020;-48
2023/08/17 07:25:20;;;;;;;4.40;2.30;;;;;;;21.20;93.18;101200.67;107297;1253;61169;-50
2023/08/17 07:27:46;;;;;;;2.80;2.10;;;;;;;21.15;93.32;101196.48;107277;1253;59482;-55
2023/08/17 07:30:13;;;;;;;4.80;2.60;;;;;;;21.11;93.32;101198.27;107380;1253;60076;-50
2023/08/17 07:32:39;;;;;;;4.00;2.80;;;;;;;21.05;93.53;101198.11;108116;1253;61320;-53
2023/08/17 07:35:07;;;;;;;4.60;2.50;;;;;;;20.99;93.74;101197.70;107288;1253;72646;-50
2023/08/17 07:37:33;;;;;;;4.60;2.80;;;;;;;20.95;93.65;101194.58;107660;1252;62248;-50
2023/08/17 07:40:03;;;;;;;3.90;2.30;;;;;;;20.90;93.81;101199.34;107914;1253;61251;-56
2023/08/17 07:42:29;;;;;;;6.10;3.90;;;;;;;20.84;94.18;101201.59;107889;1253;73447;-52
2023/08/17 07:44:56;;;;;;;4.20;3.00;;;;;;;20.81;94.57;101199.23;107276;1253;71256;-51
2023/08/17 07:47:22;;;;;;;4.50;2.70;;;;;;;20.80;94.96;101200.45;107355;1253;60348;-51
2023/08/17 07:49:49;;;;;;;4.80;2.50;;;;;;;20.84;95.47;101201.67;108180;1252;61714;-50
2023/08/17 07:52:16;;;;;;;3.70;2.30;;;;;;;20.86;94.93;101200.40;107376;1253;61139;-53
2023/08/17 07:54:42;;;;;;;3.80;2.20;;;;;;;20.84;94.71;101202.62;107170;1253;73601;-52
2023/08/17 07:57:09;;;;;;;4.20;3.00;;;;;;;20.83;94.79;101203.81;107437;1253;71086;-54
2023/08/17 07:59:35;;;;;;;3.40;2.30;;;;;;;20.81;94.70;101205.05;108194;1255;61235;-51
2023/08/17 08:02:02;;;;;;;3.70;2.30;;;;;;;20.81;94.98;101209.44;107330;1256;61755;-53
2023/08/17 08:04:28;;;;;;;4.30;2.40;;;;;;;20.77;94.56;101215.80;107343;1254;61202;-50
2023/08/17 08:06:55;;;;;;;2.90;2.50;;;;;;;20.73;94.83;101218.34;107763;1252;61345;-52
2023/08/17 08:09:21;;;;;;;3.90;2.70;;;;;;;20.73;95.10;101222.17;107678;1253;59492;-58
2023/08/17 08:11:48;;;;;;;4.80;2.70;;;;;;;20.72;94.87;101217.90;107330;1254;61389;-52
2023/08/17 08:14:14;;;;;;;4.70;2.70;;;;;;;20.69;94.86;101220.73;107359;1253;61664;-52
2023/08/17 08:16:41;;;;;;;4.70;2.20;;;;;;;20.70;95.56;101221.63;108525;1255;59400;-50
2023/08/17 08:19:07;;;;;;;4.90;2.60;;;;;;;20.73;95.25;101220.34;107651;1252;61345;-50
2023/08/17 08:21:33;;;;;;;3.90;2.30;;;;;;;20.75;95.01;101224.66;107071;1252;61254;-51
2023/08/17 08:24:00;;;;;;;3.60;2.50;;;;;;;20.73;94.81;101226.39;107029;1253;61327;-51
2023/08/17 08:26:26;;;;;;;3.20;2.30;;;;;;;20.72;94.70;101226.69;107462;1252;62912;-54
2023/08/17 08:28:53;;;;;;;3.60;2.10;;;;;;;20.74;95.02;101222.14;107875;1253;61593;-55
2023/08/17 08:31:19;;;;;;;4.20;2.20;;;;;;;20.72;94.84;101223.61;107469;1252;61811;-51
2023/08/17 08:33:46;;;;;;;4.20;2.40;;;;;;;20.73;94.86;101219.92;107539;1253;61341;-55
2023/08/17 08:36:12;;;;;;;4.60;2.70;;;;;;;20.73;94.87;101223.86;108209;1253;61230;-51
2023/08/17 08:38:39;;;;;;;3.20;1.90;;;;;;;20.72;94.95;101219.52;107520;1256;61367;-55
2023/08/17 08:41:08;;;;;;;3.10;2.20;;;;;;;20.76;95.07;101220.80;107372;1253;62323;-55
2023/08/17 08:43:35;;;;;;;2.80;2.00;;;;;;;20.76;94.59;101223.86;107152;1253;75082;-53
2023/08/17 08:46:03;;;;;;;4.40;2.40;;;;;;;20.75;94.62;101220.60;107192;1252;70864;-53
2023/08/17 08:48:31;;;;;;;3.00;2.10;;;;;;;20.73;94.39;101218.13;108074;1253;73227;-56
2023/08/17 08:51:00;;;;;;;3.80;2.50;;;;;;;20.71;94.24;101220.12;107240;1253;61478;-52
2023/08/17 08:53:32;;;;;;;4.20;2.10;;;;;;;20.70;94.44;101219.79;107287;1256;61218;-51
2023/08/17 08:56:06;;;;;;;4.50;2.40;;;;;;;20.71;94.58;101217.70;108352;1252;74750;-52
2023/08/17 08:58:33;;;;;;;2.70;2.00;;;;;;;20.71;94.37;101218.57;107384;1253;71762;-52
2023/08/17 09:01:01;;;;;;;3.60;2.80;;;;;;;20.76;94.74;101216.92;107356;1253;71500;-51
2023/08/17 09:03:29;;;;;;;3.80;2.10;;;;;;;20.82;94.77;101213.07;107370;1253;62019;-51
2023/08/17 09:05:57;;;;;;;1.90;1.70;;;;;;;20.86;94.47;101213.39;107035;1252;61149;-52
2023/08/17 09:08:29;;;;;;;4.00;2.20;;;;;;;20.91;94.46;101214.17;108219;1253;74677;-55
2023/08/17 09:10:55;;;;;;;3.50;1.80;;;;;;;20.94;94.26;101211.17;107492;1257;69958;-49
2023/08/17 09:13:22;;;;;;;2.40;1.60;;;;;;;21.05;94.53;101215.70;107546;1252;71442;-53
2023/08/17 09:15:48;;;;;;;4.10;1.80;;;;;;;21.10;93.82;101217.50;108077;1253;62226;-52
2023/08/17 09:18:17;;;;;;;3.00;2.20;;;;;;;21.16;93.85;101218.34;107234;1255;61644;-53
2023/08/17 09:20:46;;;;;;;4.30;2.60;;;;;;;21.24;93.41;101218.47;107150;1253;73668;-54
2023/08/17 09:23:19;;;;;;;3.40;1.80;;;;;;;21.23;92.71;101221.20;107268;1253;71687;-52
2023/08/17 09:25:47;;;;;;;11.00;7.70;;;;;;;21.20;92.53;101221.94;107891;1252;71894;-54
2023/08/17 09:28:16;;;;;;;2.80;1.80;;;;;;;21.20;92.11;101217.36;107199;1256;61145;-51
2023/08/17 09:30:57;;;;;;;3.30;1.60;;;;;;;21.16;91.70;101214.23;107295;1253;61435;-52
2023/08/17 09:33:31;;;;;;;5.50;3.30;;;;;;;21.14;91.43;101211.72;108007;1255;73257;-52
2023/08/17 09:35:59;;;;;;;3.20;1.40;;;;;;;21.17;91.52;101217.17;107849;1255;71174;-51
2023/08/17 09:38:27;;;;;;;4.30;3.10;;;;;;;21.18;90.81;101216.77;107433;1253;72810;-53
2023/08/17 09:40:54;;;;;;;1.90;1.30;;;;;;;21.19;90.45;101215.40;107305;1254;61107;-52
2023/08/17 09:43:21;;;;;;;2.10;1.40;;;;;;;21.18;89.95;101211.05;107252;1253;60409;-52
2023/08/17 09:45:51;;;;;;;2.50;1.20;;;;;;;21.16;89.72;101213.55;107935;1255;73288;-53
2023/08/17 09:48:19;;;;;;;2.10;1.30;;;;;;;21.14;89.65;101209.16;107192;1253;71060;-53
2023/08/17 09:50:47;;;;;;;3.30;1.50;;;;;;;21.12;89.72;101208.58;107171;1256;71475;-55
2023/08/17 09:53:15;;;;;;;2.50;1.70;;;;;;;21.12;90.00;101206.42;108489;1253;60923;-53
2023/08/17 09:55:43;;;;;;;3.40;1.60;;;;;;;21.16;89.87;101208.37;107571;1253;60350;-55
2023/08/17 09:58:14;;;;;;;2.70;1.30;;;;;;;21.21;89.42;101207.61;107281;1253;73565;-54
2023/08/17 10:00:46;;;;;;;2.70;1.40;;;;;;;21.28;88.94;101210.27;107338;1253;70197;-55
2023/08/17 10:03:19;;;;;;;1.90;1.20;;;;;;;21.32;88.30;101209.57;107487;1253;71597;-51
2023/08/17 10:05:52;;;;;;;3.50;1.30;;;;;;;21.35;87.85;101212.23;107807;1257;61091;-52
2023/08/17 10:08:22;;;;;;;3.00;1.30;;;;;;;21.32;87.58;101211.48;107265;1253;61277;-53
2023/08/17 10:10:50;;;;;;;2.00;1.10;;;;;;;21.28;87.62;101210.14;108555;1253;73976;-50
2023/08/17 10:13:37;;;;;;;2.50;1.40;;;;;;;21.22;87.44;101210.53;107291;1254;71180;-54
2023/08/17 10:16:23;;;;;;;1.90;1.10;;;;;;;21.15;86.95;101212.02;107337;1254;71364;-52
2023/08/17 10:19:06;;;;;;;1.70;1.10;;;;;;;21.07;86.79;101210.63;107504;1253;60731;-50
2023/08/17 10:21:39;;;;;;;1.60;1.10;;;;;;;21.05;86.91;101211.55;107969;1253;61123;-53
2023/08/17 10:24:07;;;;;;;2.10;1.30;;;;;;;21.02;86.54;101213.83;107577;1253;75062;-57
2023/08/17 10:26:33;;;;;;;2.80;1.30;;;;;;;20.99;86.29;101215.98;107740;1253;71575;-53
2023/08/17 10:32:48;;;;;;;2.80;1.50;;;;;;;21.13;86.51;101217.64;106955;1250;62518;-52
2023/08/17 10:35:15;;;;;;;2.20;1.40;;;;;;;21.22;86.08;101217.89;106503;1256;61077;-53
2023/08/17 10:37:43;;;;;;;2.80;1.30;;;;;;;21.26;85.47;101215.23;106473;1253;73309;-51
2023/08/17 10:40:10;;;;;;;3.70;1.70;;;;;;;21.27;85.06;101213.58;107518;1253;70047;-50
2023/08/17 10:42:40;;;;;;;2.60;1.90;;;;;;;21.24;84.17;101213.08;106805;1254;71118;-54
2023/08/17 10:45:25;;;;;;;3.50;2.00;;;;;;;21.22;84.05;101215.14;106720;1253;62471;-54
2023/08/17 10:48:00;;;;;;;2.80;1.90;;;;;;;21.19;83.62;101217.77;106652;1256;62269;-54
2023/08/17 10:50:28;;;;;;;2.90;1.90;;;;;;;21.16;83.68;101219.41;106392;1255;74628;-50
2023/08/17 10:52:54;;;;;;;3.00;1.90;;;;;;;21.10;83.17;101222.48;106182;1253;71131;-53
2023/08/17 10:55:41;;;;;;;3.60;1.90;;;;;;;21.00;83.01;101231.42;106285;1254;72754;-49
2023/08/17 10:58:08;;;;;;;3.50;1.80;;;;;;;20.92;83.36;101231.63;106056;1252;62028;-51
2023/08/17 11:00:44;;;;;;;3.80;2.20;;;;;;;20.88;83.45;101230.37;107311;1254;61260;-50
2023/08/17 11:03:20;;;;;;;3.60;1.90;;;;;;;20.80;83.54;101232.48;107770;1253;74614;-50
2023/08/17 11:05:51;;;;;;;4.20;2.10;;;;;;;20.72;83.81;101231.05;106671;1257;69948;-52
2023/08/17 11:08:38;;;;;;;3.60;2.20;;;;;;;20.63;83.38;101236.04;106085;1257;73807;-50
2023/08/17 11:11:13;;;;;;;3.50;2.20;;;;;;;20.55;83.79;101242.09;106381;1256;61237;-47
2023/08/17 11:13:42;;;;;;;3.30;2.30;;;;;;;20.49;84.14;101248.38;106162;1256;61164;-53
2023/08/17 11:16:11;;;;;;;3.80;2.30;;;;;;;20.42;84.08;101246.43;106605;1253;75606;-53
2023/08/17 11:18:46;;;;;;;3.60;2.10;;;;;;;20.34;84.02;101248.31;106736;1253;70492;-56
2023/08/17 11:21:14;;;;;;;3.30;2.20;;;;;;;20.28;84.15;101250.33;107871;1253;73000;-49